createdAt,value
2019-04-22T00:02:06.030Z,47.60
2019-04-22T00:04:46.322Z,48.57
2019-04-22T00:07:30.638Z,53.93
2019-04-22T00:10:04.821Z,52.13
2019-04-22T00:12:37.325Z,51.83
2019-04-22T00:14:57.097Z,51.50
2019-04-22T00:17:38.768Z,45.60
2019-04-22T00:20:04.376Z,48.23
2019-04-22T00:22:32.048Z,54.60
2019-04-22T00:25:08.056Z,49.10
2019-04-22T00:27:40.586Z,52.37
2019-04-22T00:30:13.908Z,50.97
2019-04-22T00:32:51.262Z,49.43
2019-04-22T00:35:17.882Z,50.97
2019-04-22T00:37:56.973Z,48.40
2019-04-22T00:40:32.271Z,52.00
2019-04-22T00:42:53.053Z,45.03
2019-04-22T00:45:31.050Z,49.43
2019-04-22T00:48:02.442Z,51.50
2019-04-22T00:53:04.566Z,47.97
2019-04-22T00:55:31.269Z,47.33
2019-04-22T00:58:05.181Z,49.60
2019-04-22T01:00:37.937Z,51.90
2019-04-22T01:03:15.486Z,46.90
2019-04-22T01:05:40.634Z,52.47
2019-04-22T01:08:19.661Z,47.53
2019-04-22T01:10:39.066Z,50.73
2019-04-22T01:13:14.166Z,49.50
2019-04-22T01:15:40.861Z,48.23
2019-04-22T01:18:11.509Z,49.93
2019-04-22T01:23:14.220Z,54.47
2019-04-22T01:25:42.202Z,51.40
2019-04-22T01:28:12.539Z,46.40
2019-04-22T01:30:35.005Z,46.83
2019-04-22T01:33:05.689Z,52.23
2019-04-22T01:35:41.296Z,47.90
2019-04-22T01:38:13.283Z,43.80
2019-04-22T01:41:03.667Z,49.30
2019-04-22T01:43:35.044Z,50.50
2019-04-22T01:46:02.683Z,52.93
2019-04-22T01:48:36.590Z,46.40
2019-04-22T01:50:56.227Z,52.23
2019-04-22T01:53:36.554Z,47.83
2019-04-22T01:56:08.807Z,50.20
2019-04-22T01:58:28.987Z,50.80
2019-04-22T02:01:04.579Z,50.73
2019-04-22T02:03:44.699Z,54.37
2019-04-22T02:06:06.529Z,46.00
2019-04-22T02:08:45.399Z,50.90
2019-04-22T02:11:23.730Z,49.03
2019-04-22T02:13:42.799Z,48.53
2019-04-22T02:16:14.153Z,46.63
2019-04-22T02:18:44.921Z,47.63
2019-04-22T02:21:13.881Z,48.47
2019-04-22T02:26:18.236Z,53.17
2019-04-22T02:29:01.153Z,48.23
2019-04-22T02:34:09.015Z,43.97
2019-04-22T02:44:13.314Z,43.10
2019-04-22T02:46:45.054Z,52.03
2019-04-22T02:49:11.736Z,50.80
2019-04-22T02:51:40.306Z,44.60
2019-04-22T03:01:41.147Z,41.57
2019-04-22T03:06:39.725Z,41.43
2019-04-22T03:09:12.518Z,47.73
2019-04-22T03:19:29.135Z,46.27
2019-04-22T03:21:50.267Z,42.73
2019-04-22T03:26:48.576Z,42.90
2019-04-22T03:29:44.667Z,42.33
2019-04-22T03:37:21.139Z,43.63
2019-04-22T03:39:52.957Z,40.03
2019-04-22T03:49:59.003Z,42.87
2019-04-22T03:55:00.725Z,40.90
2019-04-22T03:57:44.855Z,45.00
2019-04-22T03:59:57.258Z,39.23
2019-04-22T04:02:29.375Z,37.10
2019-04-22T04:04:50.627Z,42.17
2019-04-22T04:10:00.678Z,38.93
2019-04-22T04:12:28.307Z,46.70
2019-04-22T04:15:04.887Z,39.77
2019-04-22T04:25:24.955Z,40.17
2019-04-22T04:30:14.347Z,39.63
2019-04-22T04:32:46.097Z,38.73
2019-04-22T04:37:46.736Z,38.37
2019-04-22T04:47:47.817Z,44.47
2019-04-22T04:50:35.380Z,41.73
2019-04-22T04:53:06.347Z,45.53
2019-04-22T04:55:28.473Z,41.20
2019-04-22T04:57:57.733Z,38.27
2019-04-22T05:05:21.154Z,42.00
2019-04-22T05:08:24.829Z,36.80
2019-04-22T05:15:25.643Z,38.47
2019-04-22T05:17:58.045Z,37.43
2019-04-22T05:20:34.131Z,38.67
2019-04-22T05:22:51.031Z,46.27
2019-04-22T05:25:22.208Z,42.47
2019-04-22T05:27:50.920Z,42.57
2019-04-22T05:30:26.899Z,37.67
2019-04-22T05:32:55.728Z,43.53
2019-04-22T05:35:26.302Z,42.37
2019-04-22T05:38:05.099Z,42.63
2019-04-22T05:40:29.378Z,43.80
2019-04-22T05:42:56.534Z,42.30
2019-04-22T05:45:31.377Z,41.07
2019-04-22T05:50:29.382Z,39.43
2019-04-22T05:53:07.124Z,37.97
2019-04-22T05:58:15.647Z,44.07
2019-04-22T06:01:13.173Z,43.23
2019-04-22T06:03:23.533Z,40.97
2019-04-22T06:05:49.025Z,37.77
2019-04-22T06:08:22.047Z,42.83
2019-04-22T06:10:55.675Z,43.43
2019-04-22T06:13:17.979Z,40.57
2019-04-22T06:15:54.372Z,35.60
2019-04-22T06:18:27.185Z,34.10
2019-04-22T06:21:08.999Z,37.03
2019-04-22T06:23:36.033Z,38.37
2019-04-22T06:26:12.620Z,40.40
2019-04-22T06:28:51.842Z,36.83
2019-04-22T06:31:10.669Z,35.23
2019-04-22T06:33:38.600Z,37.90
2019-04-22T06:36:08.045Z,29.63
2019-04-22T06:43:40.770Z,34.57
2019-04-22T06:46:17.268Z,36.83
2019-04-22T06:48:46.263Z,29.13
2019-04-22T06:51:15.290Z,41.07
2019-04-22T06:53:43.873Z,31.33
2019-04-22T06:56:20.678Z,28.73
2019-04-22T06:58:51.046Z,33.07
2019-04-22T07:01:25.447Z,33.23
2019-04-22T07:03:53.668Z,32.23
2019-04-22T07:09:20.743Z,29.83
2019-04-22T07:11:18.507Z,36.73
2019-04-22T07:13:57.322Z,29.07
2019-04-22T07:16:26.142Z,29.97
2019-04-22T07:18:56.700Z,25.23
2019-04-22T07:21:26.052Z,29.67
2019-04-22T07:24:17.515Z,28.43
2019-04-22T07:26:25.251Z,30.07
2019-04-22T07:28:55.091Z,28.00
2019-04-22T07:31:28.954Z,26.20
2019-04-22T07:34:08.078Z,29.73
2019-04-22T07:36:48.725Z,31.23
2019-04-22T07:39:04.481Z,26.40
2019-04-22T07:44:13.127Z,26.30
2019-04-22T07:46:43.508Z,27.23
2019-04-22T07:49:10.887Z,26.80
2019-04-22T07:51:41.358Z,25.13
2019-04-22T07:54:09.275Z,28.17
2019-04-22T07:56:36.728Z,28.57
2019-04-22T07:59:15.329Z,26.47
2019-04-22T08:01:42.760Z,22.53
2019-04-22T08:04:23.167Z,22.10
2019-04-22T08:09:19.945Z,20.53
2019-04-22T08:11:51.588Z,23.87
2019-04-22T08:14:22.465Z,19.47
2019-04-22T08:16:51.980Z,23.90
2019-04-22T08:19:33.214Z,22.77
2019-04-22T08:21:53.285Z,20.03
2019-04-22T08:24:26.587Z,22.37
2019-04-22T08:26:59.357Z,22.70
2019-04-22T08:29:37.616Z,16.10
2019-04-22T08:34:27.489Z,15.60
2019-04-22T08:37:37.459Z,19.23
2019-04-22T08:39:32.692Z,16.67
2019-04-22T08:42:11.497Z,15.07
2019-04-22T08:47:21.002Z,20.63
2019-04-22T08:49:40.842Z,17.30
2019-04-22T08:54:43.710Z,18.87
2019-04-22T08:57:20.629Z,17.33
2019-04-22T08:59:46.647Z,12.10
2019-04-22T09:02:19.829Z,14.57
2019-04-22T09:04:45.447Z,19.13
2019-04-22T09:10:02.094Z,12.07
2019-04-22T09:12:23.894Z,15.40
2019-04-22T09:14:45.584Z,11.20
2019-04-22T09:17:19.982Z,16.37
2019-04-22T09:19:56.603Z,13.30
2019-04-22T09:22:21.847Z,15.13
2019-04-22T09:24:51.761Z,18.82
2019-04-22T09:27:34.873Z,15.90
2019-04-22T09:29:58.499Z,10.33
2019-04-22T09:32:34.431Z,11.57
2019-04-22T09:35:00.655Z,13.55
2019-04-22T09:37:35.703Z,10.57
2019-04-22T09:40:07.283Z,9.70
2019-04-22T09:42:38.875Z,13.37
2019-04-22T09:45:06.179Z,6.93
2019-04-22T09:47:40.448Z,6.90
2019-04-22T09:50:12.737Z,8.80
2019-04-22T09:52:43.561Z,6.60
2019-04-22T09:55:26.323Z,6.72
2019-04-22T09:57:41.307Z,9.05
2019-04-22T10:00:35.476Z,11.43
2019-04-22T10:02:49.026Z,9.87
2019-04-22T10:05:29.299Z,7.85
2019-04-22T10:08:02.789Z,10.23
2019-04-22T10:10:26.857Z,7.35
2019-04-22T10:13:00.262Z,7.10
2019-04-22T10:15:25.180Z,5.97
2019-04-22T10:17:58.202Z,9.10
2019-04-22T10:20:31.626Z,9.80
2019-04-22T10:23:06.263Z,6.90
2019-04-22T10:25:35.368Z,9.65
2019-04-22T10:28:09.246Z,7.00
2019-04-22T10:30:44.452Z,6.00
2019-04-22T10:33:04.626Z,9.13
2019-04-22T10:35:18.927Z,10.00
2019-04-22T10:37:46.157Z,8.70
2019-04-22T10:40:34.590Z,8.45
2019-04-22T10:43:05.296Z,8.45
2019-04-22T10:45:36.220Z,6.03
2019-04-22T10:48:08.411Z,6.92
2019-04-22T10:50:56.900Z,4.80
2019-04-22T10:53:26.600Z,7.70
2019-04-22T10:55:56.456Z,13.95
2019-04-22T10:58:26.693Z,6.50
2019-04-22T11:00:56.342Z,6.20
2019-04-22T11:03:28.266Z,7.10
2019-04-22T11:05:59.253Z,6.55
2019-04-22T11:08:38.899Z,6.25
2019-04-22T11:11:16.910Z,6.08
2019-04-22T11:13:31.737Z,14.10
2019-04-22T11:16:01.072Z,8.50
2019-04-22T11:18:31.553Z,11.68
2019-04-22T11:21:11.597Z,9.18
2019-04-22T11:23:40.953Z,5.53
2019-04-22T11:26:12.062Z,7.40
2019-04-22T11:28:41.601Z,12.93
2019-04-22T11:31:12.456Z,12.28
2019-04-22T11:33:42.776Z,4.28
2019-04-22T11:36:13.559Z,5.55
2019-04-22T11:38:49.751Z,5.17
2019-04-22T11:41:16.819Z,6.65
2019-04-22T11:43:47.359Z,6.55
2019-04-22T11:46:17.622Z,9.28
2019-04-22T11:48:47.747Z,5.70
2019-04-22T11:51:18.243Z,7.17
2019-04-22T11:53:49.013Z,6.15
2019-04-22T11:56:18.863Z,5.37
2019-04-22T11:58:49.016Z,6.42
2019-04-22T12:01:19.236Z,3.58
2019-04-22T12:03:49.576Z,5.30
2019-04-22T12:06:19.881Z,7.67
2019-04-22T12:08:50.065Z,7.92
2019-04-22T12:11:20.663Z,7.45
2019-04-22T12:13:51.829Z,6.37
2019-04-22T12:16:21.410Z,7.20
2019-04-22T12:18:51.207Z,11.57
2019-04-22T12:21:21.449Z,8.20
2019-04-22T12:23:50.989Z,6.40
2019-04-22T12:26:22.917Z,7.15
2019-04-22T12:28:53.066Z,6.10
2019-04-22T12:31:23.672Z,10.72
2019-04-22T12:33:53.309Z,5.95
2019-04-22T12:36:24.423Z,6.75
2019-04-22T12:38:53.921Z,5.40
2019-04-22T12:41:23.615Z,8.28
2019-04-22T12:43:53.318Z,6.37
2019-04-22T12:46:24.020Z,5.30
2019-04-22T12:48:53.919Z,11.93
2019-04-22T12:51:23.262Z,3.85
2019-04-22T12:53:52.897Z,10.58
2019-04-22T12:56:23.885Z,4.87
2019-04-22T12:58:53.994Z,5.35
2019-04-22T13:01:24.683Z,9.08
2019-04-22T13:04:00.252Z,6.50
2019-04-22T13:06:25.819Z,4.50
2019-04-22T13:08:56.585Z,4.72
2019-04-22T13:11:32.051Z,4.50
2019-04-22T13:13:57.018Z,5.22
2019-04-22T13:16:26.968Z,5.00
2019-04-22T13:19:00.142Z,4.10
2019-04-22T13:21:28.923Z,8.73
2019-04-22T13:23:59.254Z,8.78
2019-04-22T13:26:29.763Z,4.60
2019-04-22T13:28:59.240Z,6.17
2019-04-22T13:31:29.021Z,8.75
2019-04-22T13:34:01.691Z,6.12
2019-04-22T13:36:31.505Z,4.15
2019-04-22T13:39:00.836Z,4.62
2019-04-22T13:41:37.660Z,6.62
2019-04-22T13:44:02.017Z,6.15
2019-04-22T13:46:33.652Z,4.28
2019-04-22T13:49:37.777Z,6.72
2019-04-22T13:52:09.029Z,8.08
2019-04-22T13:56:56.911Z,7.17
2019-04-22T13:59:22.255Z,5.35
2019-04-22T14:01:54.743Z,6.20
2019-04-22T14:04:28.624Z,4.75
2019-04-22T14:06:58.764Z,4.92
2019-04-22T14:09:28.431Z,6.65
2019-04-22T14:12:03.368Z,3.75
2019-04-22T14:14:30.107Z,5.65
2019-04-22T14:17:00.725Z,3.08
2019-04-22T14:19:30.243Z,5.58
2019-04-22T14:21:59.928Z,5.03
2019-04-22T14:24:30.018Z,4.03
2019-04-22T14:27:19.668Z,5.17
2019-04-22T14:29:31.405Z,4.62
2019-04-22T14:32:07.592Z,5.80
2019-04-22T14:34:32.182Z,3.40
2019-04-22T14:37:01.677Z,2.87
2019-04-22T14:39:31.019Z,9.98
2019-04-22T14:42:19.569Z,5.05
2019-04-22T14:45:41.566Z,3.47
2019-04-22T14:47:26.378Z,9.68
2019-04-22T14:49:52.869Z,5.67
2019-04-22T14:52:27.746Z,5.27
2019-04-22T14:54:49.634Z,5.97
2019-04-22T14:57:07.345Z,5.03
2019-04-22T14:59:37.777Z,5.47
2019-04-22T15:02:09.787Z,6.53
2019-04-22T15:04:39.585Z,4.80
2019-04-22T15:07:08.880Z,6.33
2019-04-22T15:09:39.503Z,5.50
2019-04-22T15:12:18.486Z,6.80
2019-04-22T15:14:41.451Z,3.75
2019-04-22T15:17:22.926Z,4.70
2019-04-22T15:20:14.155Z,9.13
2019-04-22T15:22:44.319Z,5.17
2019-04-22T15:25:14.448Z,4.80
2019-04-22T15:27:43.760Z,6.90
2019-04-22T15:30:15.082Z,5.30
2019-04-22T15:32:45.526Z,3.63
2019-04-22T15:35:15.513Z,5.43
2019-04-22T15:37:45.567Z,4.40
2019-04-22T15:40:16.423Z,6.20
2019-04-22T15:42:47.056Z,3.53
2019-04-22T15:45:18.751Z,6.50
2019-04-22T15:47:50.099Z,6.90
2019-04-22T15:50:19.971Z,5.73
2019-04-22T15:52:51.926Z,6.03
2019-04-22T15:55:20.775Z,4.60
2019-04-22T15:57:51.796Z,3.77
2019-04-22T16:00:36.740Z,4.37
2019-04-22T16:02:53.247Z,6.40
2019-04-22T16:05:22.645Z,3.63
2019-04-22T16:07:53.042Z,4.90
2019-04-22T16:10:23.806Z,3.83
2019-04-22T16:13:03.517Z,6.33
2019-04-22T16:15:24.714Z,4.43
2019-04-22T16:17:54.985Z,7.23
2019-04-22T16:20:25.896Z,3.47
2019-04-22T16:23:20.879Z,6.47
2019-04-22T16:25:55.592Z,4.90
2019-04-22T16:28:25.181Z,4.33
2019-04-22T16:30:55.318Z,5.80
2019-04-22T16:33:25.682Z,4.93
2019-04-22T16:35:58.768Z,4.43
2019-04-22T16:38:28.897Z,5.40
2019-04-22T16:40:58.870Z,9.87
2019-04-22T16:43:28.796Z,4.87
2019-04-22T16:45:58.223Z,6.50
2019-04-22T16:48:27.676Z,4.80
2019-04-22T16:50:58.436Z,7.90
2019-04-22T16:53:29.365Z,4.97
2019-04-22T16:55:59.183Z,8.33
2019-04-22T16:58:28.694Z,8.80
2019-04-22T17:00:58.808Z,5.73
2019-04-22T17:03:40.600Z,6.63
2019-04-22T17:06:29.782Z,6.03
2019-04-22T17:09:02.659Z,5.20
2019-04-22T17:11:31.878Z,6.33
2019-04-22T17:14:01.416Z,5.73
2019-04-22T17:16:32.226Z,6.33
2019-04-22T17:19:02.589Z,5.53
2019-04-22T17:21:32.807Z,5.13
2019-04-22T17:24:03.473Z,7.40
2019-04-22T17:26:34.447Z,7.27
2019-04-22T17:29:06.358Z,10.30
2019-04-22T17:31:36.432Z,4.93
2019-04-22T17:34:06.889Z,6.67
2019-04-22T17:36:36.518Z,16.00
2019-04-22T17:39:22.861Z,14.03
2019-04-22T17:41:59.323Z,10.73
2019-04-22T17:47:21.291Z,18.40
2019-04-22T17:50:00.166Z,8.83
2019-04-22T17:52:32.659Z,8.80
2019-04-22T17:54:56.177Z,6.93
2019-04-22T17:57:34.388Z,5.63
2019-04-22T18:00:30.072Z,71.87
2019-04-22T18:02:59.702Z,308.07
2019-04-22T18:05:18.725Z,273.07
2019-04-22T18:08:10.026Z,207.13
2019-04-22T18:10:37.911Z,199.57
2019-04-22T18:13:21.243Z,209.80
2019-04-22T18:15:45.239Z,113.37
2019-04-22T18:18:12.783Z,62.73
2019-04-22T18:20:35.010Z,38.23
2019-04-22T18:23:02.633Z,28.43
2019-04-22T18:25:44.799Z,16.33
2019-04-22T18:28:17.082Z,15.97
2019-04-22T18:30:41.188Z,18.40
2019-04-22T18:33:21.123Z,8.70
2019-04-22T18:35:44.309Z,13.83
2019-04-22T18:38:32.039Z,9.70
2019-04-22T18:40:50.612Z,13.03
2019-04-22T18:43:27.419Z,11.50
2019-04-22T18:46:03.738Z,8.43
2019-04-22T18:48:16.436Z,15.17
2019-04-22T18:51:18.526Z,9.70
2019-04-22T18:54:19.757Z,5.37
2019-04-22T18:56:46.497Z,8.03
2019-04-22T18:59:10.563Z,9.87
2019-04-22T19:01:30.353Z,9.00
2019-04-22T19:04:10.528Z,9.43
2019-04-22T19:06:55.198Z,17.23
2019-04-22T19:09:27.360Z,10.13
2019-04-22T19:12:11.774Z,12.00
2019-04-22T19:14:24.192Z,15.63
2019-04-22T19:17:07.335Z,9.17
2019-04-22T19:19:33.493Z,7.90
2019-04-22T19:21:59.817Z,10.53
2019-04-22T19:24:29.137Z,15.63
2019-04-22T19:27:03.018Z,9.97
2019-04-22T19:29:31.682Z,9.67
2019-04-22T19:32:03.948Z,10.77
2019-04-22T19:34:33.671Z,12.27
2019-04-22T19:37:09.112Z,14.83
2019-04-22T19:39:31.093Z,12.70
2019-04-22T19:42:20.566Z,11.80
2019-04-22T19:44:37.481Z,14.70
2019-04-22T19:49:58.072Z,8.97
2019-04-22T19:52:18.928Z,11.10
2019-04-22T19:54:43.851Z,9.60
2019-04-22T19:57:11.727Z,11.13
2019-04-22T19:59:51.067Z,13.50
2019-04-22T20:02:34.591Z,12.57
2019-04-22T20:05:24.609Z,9.70
2019-04-22T20:07:41.634Z,13.10
2019-04-22T20:10:23.593Z,15.60
2019-04-22T20:12:42.809Z,7.63
2019-04-22T20:15:16.495Z,13.63
2019-04-22T20:18:08.548Z,11.40
2019-04-22T20:20:27.359Z,9.23
2019-04-22T20:22:49.334Z,11.20
2019-04-22T20:25:14.595Z,13.23
2019-04-22T20:27:54.756Z,8.10
2019-04-22T20:30:30.939Z,9.27
2019-04-22T20:32:52.588Z,11.37
2019-04-22T20:35:37.364Z,7.97
2019-04-22T20:38:04.220Z,10.20
2019-04-22T20:40:29.395Z,10.43
2019-04-22T20:43:10.458Z,15.00
2019-04-22T20:45:34.902Z,14.03
2019-04-22T20:47:53.898Z,11.60
2019-04-22T20:50:39.062Z,11.40
2019-04-22T20:53:11.809Z,12.67
2019-04-22T20:55:40.500Z,13.07
2019-04-22T20:58:11.728Z,11.57
2019-04-22T21:00:36.570Z,10.80
2019-04-22T21:02:59.822Z,13.27
2019-04-22T21:05:35.844Z,9.93
2019-04-22T21:08:11.512Z,20.10
2019-04-22T21:10:42.561Z,18.23
2019-04-22T21:13:11.185Z,14.67
2019-04-22T21:15:55.101Z,14.33
2019-04-22T21:18:14.669Z,10.83
2019-04-22T21:20:52.992Z,13.60
2019-04-22T21:23:16.533Z,11.73
2019-04-22T21:25:43.067Z,10.53
2019-04-22T21:28:24.465Z,14.00
2019-04-22T21:30:53.534Z,15.53
2019-04-22T21:33:16.209Z,13.27
2019-04-22T21:36:05.671Z,10.23
2019-04-22T21:38:26.413Z,14.37
2019-04-22T21:40:56.379Z,17.97
2019-04-22T21:43:30.569Z,13.03
2019-04-22T21:46:07.153Z,15.27
2019-04-22T21:48:37.565Z,18.70
2019-04-22T21:51:04.894Z,19.37
2019-04-22T21:53:41.654Z,12.03
2019-04-22T21:56:25.370Z,11.80
2019-04-22T21:58:38.191Z,8.63
2019-04-22T22:01:20.216Z,16.33
2019-04-22T22:03:54.911Z,12.20
2019-04-22T22:06:12.899Z,12.47
2019-04-22T22:08:57.947Z,10.03
2019-04-22T22:11:23.557Z,9.10
2019-04-22T22:13:59.188Z,12.73
2019-04-22T22:16:18.956Z,15.43
2019-04-22T22:19:02.485Z,11.33
2019-04-22T22:24:06.740Z,13.73
2019-04-22T22:26:35.311Z,9.70
2019-04-22T22:29:05.062Z,11.60
2019-04-22T22:31:42.435Z,13.23
2019-04-22T22:34:09.761Z,13.57
2019-04-22T22:36:29.521Z,11.50
2019-04-22T22:39:00.081Z,14.30
2019-04-22T22:41:16.142Z,12.00
2019-04-22T22:43:50.664Z,11.57
2019-04-22T22:46:29.334Z,11.47
2019-04-22T22:49:10.084Z,20.67
2019-04-22T22:51:45.333Z,14.87
2019-04-22T22:54:12.182Z,11.63
2019-04-22T22:56:47.472Z,11.20
2019-04-22T22:59:17.994Z,14.43
2019-04-22T23:01:45.329Z,13.67
2019-04-22T23:04:18.703Z,15.87
2019-04-22T23:06:50.340Z,8.63
2019-04-22T23:09:22.482Z,14.07
2019-04-22T23:12:06.121Z,10.80
2019-04-22T23:14:20.333Z,13.77
2019-04-22T23:16:40.864Z,10.37
2019-04-22T23:19:06.785Z,9.73
2019-04-22T23:21:41.479Z,10.33
2019-04-22T23:24:44.016Z,8.60
2019-04-22T23:27:22.734Z,9.93
2019-04-22T23:29:57.556Z,13.53
2019-04-22T23:32:34.658Z,10.97
2019-04-22T23:35:16.598Z,13.57
2019-04-22T23:37:47.373Z,10.23
2019-04-22T23:40:22.116Z,9.73
2019-04-22T23:42:53.844Z,12.83
2019-04-22T23:45:25.613Z,13.50
2019-04-22T23:47:43.189Z,10.33
2019-04-22T23:50:26.646Z,13.00
2019-04-22T23:52:58.987Z,12.00
2019-04-22T23:55:34.085Z,9.23
2019-04-22T23:58:02.723Z,10.83
